Time;durP1;ratioP1;P1;durP2;ratioP2;P2;SDS_P1;SDS_P2;PMS_P1;PMS_P2;Temp;Humidity;BMP_temperature;BMP_pressure;BME280_temperature;BME280_humidity;BME280_pressure;Samples;Min_cycle;Max_cycle;Signal;HPM_P1;HPM_P2
2022/05/13 00:00:45;;;;;;;2.72;1.20;;;;;;;13.02;52.30;101085.13;7396653;19;20018;-67
2022/05/13 00:03:13;;;;;;;2.38;1.35;;;;;;;13.02;52.34;101081.66;7394190;19;20023;-67
2022/05/13 00:05:41;;;;;;;1.67;1.13;;;;;;;13.02;52.50;101084.28;7393836;19;20027;-66
2022/05/13 00:08:10;;;;;;;3.17;1.42;;;;;;;13.01;52.30;101083.41;7393831;19;20063;-66
2022/05/13 00:10:38;;;;;;;3.83;1.33;;;;;;;13.01;52.53;101085.19;7394307;19;20022;-67
2022/05/13 00:13:08;;;;;;;1.67;1.48;;;;;;;13.01;52.47;101083.41;7394149;19;20022;-66
2022/05/13 00:15:39;;;;;;;5.22;1.63;;;;;;;13.00;52.61;101091.34;7394062;19;20082;-66
2022/05/13 00:18:08;;;;;;;3.53;1.48;;;;;;;12.98;52.57;101087.91;7396120;19;20025;-66
2022/05/13 00:20:36;;;;;;;1.95;1.33;;;;;;;12.96;52.60;101087.06;7394343;19;20035;-66
2022/05/13 00:23:05;;;;;;;2.42;1.42;;;;;;;12.94;52.84;101073.94;7393927;19;20023;-65
2022/05/13 00:25:36;;;;;;;3.67;1.38;;;;;;;12.93;52.73;101073.97;7393152;19;20018;-65
2022/05/13 00:28:07;;;;;;;4.38;2.13;;;;;;;12.91;52.59;101081.06;7394295;19;20485;-65
2022/05/13 00:30:42;;;;;;;3.42;1.48;;;;;;;12.92;52.58;101072.25;7394070;19;20014;-66
2022/05/13 00:33:10;;;;;;;2.90;1.50;;;;;;;12.91;52.72;101073.16;7393930;19;20035;-65
2022/05/13 00:35:39;;;;;;;3.80;1.55;;;;;;;12.88;52.62;101072.31;7393497;19;20041;-66
2022/05/13 00:38:07;;;;;;;2.15;1.40;;;;;;;12.86;52.77;101076.78;7394802;19;20473;-65
2022/05/13 00:40:37;;;;;;;3.88;1.60;;;;;;;12.85;52.71;101066.28;7393378;19;20022;-66
2022/05/13 00:43:08;;;;;;;4.97;1.35;;;;;;;12.82;52.77;101064.59;7394991;19;20378;-66
2022/05/13 00:45:37;;;;;;;2.97;1.40;;;;;;;12.81;52.78;101065.47;7393238;19;20022;-66
2022/05/13 00:48:09;;;;;;;3.90;1.40;;;;;;;12.79;52.87;101067.31;7394133;19;20029;-66
2022/05/13 00:50:40;;;;;;;3.60;1.35;;;;;;;12.78;53.01;101067.34;7393445;19;20018;-66
2022/05/13 00:53:09;;;;;;;2.33;1.50;;;;;;;12.74;53.07;101063.06;7394755;19;20037;-66
2022/05/13 00:55:41;;;;;;;2.80;1.48;;;;;;;12.69;53.28;101069.31;7392761;19;20036;-66
2022/05/13 00:58:12;;;;;;;2.90;1.95;;;;;;;12.66;53.38;101071.16;7395077;19;20036;-66
2022/05/13 01:00:40;;;;;;;3.13;1.38;;;;;;;12.63;53.46;101068.59;7392849;19;20019;-66
2022/05/13 01:03:13;;;;;;;3.88;1.60;;;;;;;12.61;53.51;101059.88;7392236;19;20477;-66
2022/05/13 01:05:43;;;;;;;4.85;1.55;;;;;;;12.60;53.42;101066.91;7392571;19;20045;-65
2022/05/13 01:08:12;;;;;;;11.15;2.08;;;;;;;12.57;53.67;101066.13;7392242;19;20019;-66
2022/05/13 01:10:42;;;;;;;3.42;1.85;;;;;;;12.54;53.79;101060.03;7394610;19;20041;-66
2022/05/13 01:13:14;;;;;;;3.47;1.58;;;;;;;12.51;53.82;101062.75;7397594;19;20010;-66
2022/05/13 01:15:47;;;;;;;3.08;1.60;;;;;;;12.49;54.17;101054.00;7394123;19;20350;-66
2022/05/13 01:18:24;;;;;;;3.65;1.52;;;;;;;12.45;54.70;101052.38;7393634;19;20018;-66
2022/05/13 01:20:59;;;;;;;2.28;1.77;;;;;;;12.43;54.02;101054.16;7394445;19;20013;-66
2022/05/13 01:23:33;;;;;;;9.65;2.25;;;;;;;12.41;54.16;101050.72;7393561;19;20023;-66
2022/05/13 01:26:04;;;;;;;2.97;1.90;;;;;;;12.37;54.28;101044.66;7392174;19;20022;-65
2022/05/13 01:28:34;;;;;;;4.68;1.80;;;;;;;12.37;54.18;101049.03;7391858;19;20021;-66
2022/05/13 01:31:07;;;;;;;4.72;1.98;;;;;;;12.34;54.63;101043.88;7393695;19;20509;-65
2022/05/13 01:33:35;;;;;;;3.83;1.83;;;;;;;12.30;54.56;101052.75;7393602;19;20028;-65
2022/05/13 01:36:07;;;;;;;4.18;1.83;;;;;;;12.27;54.54;101048.44;7393139;19;20480;-66
2022/05/13 01:38:40;;;;;;;3.53;1.60;;;;;;;12.24;54.78;101043.22;7400494;19;20039;-65
2022/05/13 01:41:10;;;;;;;2.80;1.50;;;;;;;12.20;55.00;101045.06;7398550;19;20023;-66
2022/05/13 01:43:39;;;;;;;4.82;2.20;;;;;;;12.14;55.03;101045.19;7400585;19;20028;-65
2022/05/13 01:46:07;;;;;;;3.60;1.85;;;;;;;12.10;55.13;101040.91;7400293;19;20381;-66
2022/05/13 01:48:36;;;;;;;3.70;1.92;;;;;;;12.03;55.43;101037.56;7397354;19;20431;-66
2022/05/13 01:51:05;;;;;;;4.45;2.05;;;;;;;12.00;55.45;101042.88;7400253;19;20022;-66
2022/05/13 01:53:34;;;;;;;3.40;1.88;;;;;;;11.97;55.61;101044.75;7400021;19;20031;-65
2022/05/13 01:56:05;;;;;;;20.50;16.08;;;;;;;11.94;55.75;101042.13;7397782;19;20022;-66
2022/05/13 01:58:33;;;;;;;15.85;11.13;;;;;;;11.90;55.70;101043.97;7400527;19;20022;-66
2022/05/13 02:01:02;;;;;;;7.95;5.22;;;;;;;11.86;55.75;101045.78;7400142;19;20019;-66
2022/05/13 02:06:11;;;;;;;4.30;2.38;;;;;;;11.79;56.10;101048.59;7400185;19;20014;-66
2022/05/13 02:08:40;;;;;;;2.38;2.03;;;;;;;11.73;56.31;101047.84;7397072;19;20027;-67
2022/05/13 02:11:10;;;;;;;3.65;2.15;;;;;;;11.70;56.56;101047.03;7397349;19;20041;-67
2022/05/13 02:13:39;;;;;;;5.20;2.42;;;;;;;11.67;56.54;101041.84;7396913;19;20418;-66
2022/05/13 02:16:08;;;;;;;5.07;2.65;;;;;;;11.62;56.68;101039.31;7397788;19;20022;-67
2022/05/13 02:18:36;;;;;;;2.92;2.42;;;;;;;11.58;56.93;101049.03;7400522;19;20035;-67
2022/05/13 02:21:06;;;;;;;4.13;2.38;;;;;;;11.55;56.79;101042.97;7398422;19;20019;-66
2022/05/13 02:23:34;;;;;;;5.00;2.30;;;;;;;11.50;56.97;101052.69;7399015;19;20029;-65
2022/05/13 02:26:06;;;;;;;2.45;2.25;;;;;;;11.45;57.34;101052.81;7397436;19;20031;-67
2022/05/13 02:28:37;;;;;;;2.60;2.40;;;;;;;11.40;57.75;101050.28;7396953;19;20035;-66
2022/05/13 02:31:11;;;;;;;4.55;2.58;;;;;;;11.38;57.49;101048.56;7397607;19;20039;-66
2022/05/13 02:33:40;;;;;;;7.20;2.90;;;;;;;11.35;57.61;101051.28;7397582;19;20039;-66
2022/05/13 02:36:10;;;;;;;2.80;2.55;;;;;;;11.32;57.67;101043.44;7398642;19;20028;-66
2022/05/13 02:38:38;;;;;;;7.53;3.13;;;;;;;11.28;57.77;101039.16;7396943;19;20023;-65
2022/05/13 02:41:15;;;;;;;3.60;2.60;;;;;;;11.24;58.05;101039.19;7396434;19;20019;-66
2022/05/13 02:43:48;;;;;;;5.05;2.97;;;;;;;11.20;58.37;101047.19;7398332;19;20151;-65
2022/05/13 02:46:18;;;;;;;3.20;2.47;;;;;;;11.14;58.43;101045.53;7398318;19;20488;-66
2022/05/13 02:48:47;;;;;;;3.92;2.88;;;;;;;11.08;58.59;101058.78;7393683;19;20027;-66
2022/05/13 02:51:16;;;;;;;7.53;3.88;;;;;;;11.03;58.79;101053.63;7398333;19;20036;-65
2022/05/13 02:53:45;;;;;;;4.65;3.75;;;;;;;11.00;58.96;101050.19;7395692;19;20431;-65
2022/05/13 02:56:14;;;;;;;5.70;3.88;;;;;;;10.97;58.75;101058.09;7398169;19;20026;-66
2022/05/13 02:58:42;;;;;;;5.22;3.67;;;;;;;10.96;58.95;101059.88;7398157;19;20018;-66
2022/05/13 03:01:14;;;;;;;4.13;3.50;;;;;;;10.96;58.92;101053.78;7398265;19;20014;-66
2022/05/13 03:03:46;;;;;;;7.05;3.80;;;;;;;10.95;58.83;101047.63;7398182;19;20027;-66
2022/05/13 03:06:14;;;;;;;6.07;3.40;;;;;;;10.96;58.94;101056.41;7398097;19;20018;-66
2022/05/13 03:08:56;;;;;;;6.03;3.50;;;;;;;10.94;58.99;101055.56;7395038;19;20031;-66
2022/05/13 03:11:24;;;;;;;5.15;3.85;;;;;;;10.92;58.99;101048.56;7395578;19;20501;-66
2022/05/13 03:13:54;;;;;;;7.45;4.35;;;;;;;10.91;59.06;101054.69;7395357;19;20422;-66
2022/05/13 03:16:27;;;;;;;5.32;3.55;;;;;;;10.89;59.37;101053.88;7397641;19;20015;-66
2022/05/13 03:18:58;;;;;;;5.70;3.75;;;;;;;10.88;59.38;101049.53;7396002;19;20021;-66
2022/05/13 03:21:28;;;;;;;6.97;3.88;;;;;;;10.84;59.39;101042.59;7395181;19;20528;-66
2022/05/13 03:23:58;;;;;;;5.53;4.05;;;;;;;10.82;59.73;101048.78;7395325;19;20014;-68
2022/05/13 03:26:26;;;;;;;6.38;4.20;;;;;;;10.80;59.71;101047.94;7395396;19;20019;-66
2022/05/13 03:28:54;;;;;;;5.95;4.20;;;;;;;10.77;59.84;101043.59;7394961;19;20026;-66
2022/05/13 03:31:25;;;;;;;8.75;5.45;;;;;;;10.75;60.02;101043.63;7397263;19;20037;-65
2022/05/13 03:33:53;;;;;;;9.63;6.40;;;;;;;10.75;60.07;101041.00;7394191;19;20015;-66
2022/05/13 03:36:21;;;;;;;6.63;5.47;;;;;;;10.76;60.13;101039.25;7397298;19;20360;-65
2022/05/13 03:38:49;;;;;;;11.40;6.10;;;;;;;10.78;60.21;101041.81;7394488;19;20015;-65
2022/05/13 03:41:17;;;;;;;9.77;5.53;;;;;;;10.78;60.21;101034.84;7394472;19;20019;-65
2022/05/13 03:43:45;;;;;;;8.75;5.35;;;;;;;10.81;60.33;101033.91;7395719;19;20022;-66
2022/05/13 03:46:14;;;;;;;8.43;4.78;;;;;;;10.84;60.50;101042.59;7396068;19;20472;-66
2022/05/13 03:48:44;;;;;;;8.10;4.57;;;;;;;10.87;60.54;101044.31;7395623;19;20022;-66
2022/05/13 03:51:13;;;;;;;5.63;4.75;;;;;;;10.88;60.53;101046.00;7394197;19;20031;-66
2022/05/13 03:53:41;;;;;;;7.22;4.35;;;;;;;10.89;60.47;101042.50;7395207;19;20031;-66
2022/05/13 03:56:11;;;;;;;9.68;5.00;;;;;;;10.90;60.62;101039.00;7395826;19;20022;-67
2022/05/13 03:58:39;;;;;;;10.35;4.70;;;;;;;10.89;60.58;101050.38;7395982;19;20023;-67
2022/05/13 04:01:07;;;;;;;6.28;4.28;;;;;;;10.86;60.68;101046.03;7394925;19;20014;-66
2022/05/13 04:03:35;;;;;;;5.88;4.38;;;;;;;10.86;60.76;101045.19;7395059;19;20010;-66
2022/05/13 04:08:59;;;;;;;7.07;4.43;;;;;;;10.86;60.78;101038.16;7394305;19;20022;-66
2022/05/13 04:11:28;;;;;;;8.00;4.53;;;;;;;10.87;60.76;101045.16;7394106;19;20033;-66
2022/05/13 04:16:38;;;;;;;8.23;4.88;;;;;;;10.90;60.87;101031.97;7395574;19;20007;-66
2022/05/13 04:19:06;;;;;;;7.60;5.05;;;;;;;10.91;60.85;101030.22;7394911;19;20010;-66
2022/05/13 04:21:41;;;;;;;8.57;4.70;;;;;;;10.92;61.02;101032.81;7394936;19;20025;-66
2022/05/13 04:24:12;;;;;;;7.90;5.20;;;;;;;10.95;61.02;101031.88;7392696;19;20390;-66
2022/05/13 04:26:40;;;;;;;9.70;5.25;;;;;;;10.97;60.95;101030.13;7395031;19;20015;-66
2022/05/13 04:29:08;;;;;;;9.75;5.63;;;;;;;10.99;60.87;101032.69;7392282;19;20367;-67
2022/05/13 04:31:40;;;;;;;10.23;5.75;;;;;;;11.02;61.15;101035.25;7392734;19;20015;-66
2022/05/13 04:34:09;;;;;;;7.68;5.32;;;;;;;11.04;60.89;101030.84;7393205;19;20018;-66
2022/05/13 04:36:40;;;;;;;8.95;6.05;;;;;;;11.07;61.34;101036.91;7394464;19;20018;-67
2022/05/13 04:39:09;;;;;;;12.52;6.82;;;;;;;11.11;60.97;101032.47;7392023;19;20007;-65
2022/05/13 04:44:19;;;;;;;9.57;6.32;;;;;;;11.18;60.93;101028.81;7393831;19;20486;-65
2022/05/13 04:46:48;;;;;;;9.57;6.20;;;;;;;11.21;60.92;101027.91;7393394;19;20032;-67
2022/05/13 04:49:16;;;;;;;9.23;5.70;;;;;;;11.24;60.97;101030.47;7392826;19;20019;-66
2022/05/13 04:51:47;;;;;;;11.25;6.70;;;;;;;11.27;61.08;101032.16;7391660;19;20032;-65
2022/05/13 04:54:15;;;;;;;8.70;6.03;;;;;;;11.33;60.96;101026.78;7390874;19;20449;-65
2022/05/13 04:56:43;;;;;;;7.93;6.18;;;;;;;11.37;61.09;101023.19;7391417;19;20010;-65
2022/05/13 04:59:12;;;;;;;13.40;6.40;;;;;;;11.41;61.07;101027.47;7390901;19;20033;-64
2022/05/13 05:01:40;;;;;;;8.60;5.97;;;;;;;11.46;60.81;101028.28;7392322;19;20018;-63
2022/05/13 05:04:08;;;;;;;9.30;5.80;;;;;;;11.51;60.81;101036.94;7390369;19;20019;-65
2022/05/13 05:06:36;;;;;;;10.05;6.45;;;;;;;11.56;60.74;101040.31;7390911;19;20039;-67
2022/05/13 05:09:07;;;;;;;12.05;5.55;;;;;;;11.62;60.93;101043.72;7390213;19;20031;-66
2022/05/13 05:11:35;;;;;;;11.45;6.03;;;;;;;11.67;60.52;101042.69;7392316;19;20019;-66
2022/05/13 05:14:03;;;;;;;7.30;5.50;;;;;;;11.72;60.53;101040.84;7397440;19;20018;-65
2022/05/13 05:16:31;;;;;;;15.40;6.07;;;;;;;11.76;60.36;101036.38;7397710;19;20042;-64
2022/05/13 05:19:00;;;;;;;7.95;5.80;;;;;;;11.83;60.24;101037.13;7399579;19;20011;-65
2022/05/13 05:21:28;;;;;;;9.38;5.75;;;;;;;11.88;60.05;101037.91;7399327;19;20019;-66
2022/05/13 05:23:57;;;;;;;10.70;5.57;;;;;;;11.94;60.04;101035.09;7396666;19;20022;-66
2022/05/13 05:26:28;;;;;;;8.52;5.47;;;;;;;12.00;59.82;101037.63;7400355;19;20018;-66
2022/05/13 05:28:56;;;;;;;7.38;5.60;;;;;;;12.09;59.80;101033.06;7400832;19;20018;-66
2022/05/13 05:31:25;;;;;;;8.82;5.55;;;;;;;12.14;59.61;101032.03;7397469;19;20033;-66
2022/05/13 05:33:53;;;;;;;5.82;5.22;;;;;;;12.23;59.57;101038.84;7398936;19;20506;-66
2022/05/13 05:36:21;;;;;;;9.57;5.60;;;;;;;12.31;59.48;101036.91;7400289;19;20023;-67
2022/05/13 05:38:49;;;;;;;6.32;5.50;;;;;;;12.38;59.29;101029.72;7397696;19;20036;-67
2022/05/13 05:41:18;;;;;;;11.98;5.70;;;;;;;12.45;59.33;101033.06;7399467;19;20028;-65
2022/05/13 05:43:50;;;;;;;10.50;5.68;;;;;;;12.54;59.66;101033.69;7399100;19;20058;-66
2022/05/13 05:46:18;;;;;;;6.72;5.30;;;;;;;12.62;59.39;101033.50;7397368;19;20014;-66
2022/05/13 05:48:47;;;;;;;6.57;5.60;;;;;;;12.70;59.25;101028.03;7400278;19;20018;-67
2022/05/13 05:51:15;;;;;;;9.10;5.68;;;;;;;12.77;59.21;101029.63;7396907;19;20497;-66
2022/05/13 05:59:08;;;;;;;9.20;5.07;;;;;;;13.00;59.16;101014.97;7400413;19;20405;-66
2022/05/13 06:01:36;;;;;;;10.00;5.28;;;;;;;13.07;58.95;101008.63;7397641;19;20018;-66
2022/05/13 06:04:05;;;;;;;8.05;5.25;;;;;;;13.13;58.77;101008.47;7396761;19;20032;-66
2022/05/13 06:06:33;;;;;;;6.35;5.05;;;;;;;13.22;58.63;101014.34;7399267;19;20082;-67
2022/05/13 06:09:02;;;;;;;7.30;5.35;;;;;;;13.30;58.51;101023.78;7397138;19;20397;-65
2022/05/13 06:11:30;;;;;;;6.53;4.97;;;;;;;13.39;58.35;101016.56;7396874;19;20014;-66
2022/05/13 06:14:00;;;;;;;6.70;5.15;;;;;;;13.47;58.19;101018.06;7397184;19;20031;-66
2022/05/13 06:16:32;;;;;;;8.18;4.90;;;;;;;13.57;57.97;101023.06;7396685;19;20014;-66
2022/05/13 06:19:01;;;;;;;7.80;5.30;;;;;;;13.65;57.88;101015.78;7399123;19;20014;-67
2022/05/13 06:21:29;;;;;;;7.70;5.10;;;;;;;13.74;57.48;101014.66;7398939;19;20036;-67
2022/05/13 06:23:57;;;;;;;9.30;5.38;;;;;;;13.85;57.46;101013.41;7397008;19;20480;-67
2022/05/13 06:26:26;;;;;;;7.63;4.57;;;;;;;13.94;57.24;101012.25;7398724;19;20038;-67
2022/05/13 06:28:54;;;;;;;8.80;4.90;;;;;;;14.04;57.19;101012.81;7395689;19;20481;-66
2022/05/13 06:31:23;;;;;;;6.43;4.88;;;;;;;14.14;56.91;101021.28;7395307;19;20050;-66
2022/05/13 06:33:54;;;;;;;8.55;5.55;;;;;;;14.23;56.65;101021.00;7397411;19;20019;-66
2022/05/13 06:36:23;;;;;;;8.57;5.50;;;;;;;14.34;56.35;101024.16;7398635;19;20018;-66
2022/05/13 06:38:51;;;;;;;5.63;4.93;;;;;;;14.44;56.20;101021.19;7396060;19;20023;-66
2022/05/13 06:41:19;;;;;;;7.13;5.65;;;;;;;14.55;56.16;101013.78;7398071;19;20023;-66
2022/05/13 06:43:47;;;;;;;7.85;4.72;;;;;;;14.67;55.11;101020.44;7397873;19;20098;-66
2022/05/13 06:46:16;;;;;;;8.93;5.20;;;;;;;14.78;54.83;101025.38;7396747;19;20022;-66
2022/05/13 06:48:44;;;;;;;6.28;4.43;;;;;;;14.93;54.35;101011.59;7398073;19;20041;-65
2022/05/13 06:51:15;;;;;;;10.07;5.43;;;;;;;15.06;53.52;101005.88;7395725;19;20032;-66
2022/05/13 06:53:43;;;;;;;7.68;4.30;;;;;;;15.20;53.46;101005.38;7395851;19;20032;-66
2022/05/13 06:56:12;;;;;;;6.35;4.30;;;;;;;15.34;53.04;101000.44;7398042;19;20027;-67
2022/05/13 06:58:40;;;;;;;9.75;4.30;;;;;;;15.50;52.81;100998.06;7397703;19;20432;-67
2022/05/13 07:01:08;;;;;;;9.05;6.15;;;;;;;15.64;52.43;101000.19;7394981;19;20422;-67
2022/05/13 07:03:36;;;;;;;7.57;4.88;;;;;;;15.78;51.93;100989.06;7396709;19;20488;-66
2022/05/13 07:06:04;;;;;;;5.78;4.15;;;;;;;15.92;51.50;100983.25;7395679;19;20035;-66
2022/05/13 07:08:35;;;;;;;7.60;4.28;;;;;;;16.07;51.76;100987.06;7394636;19;20006;-66
2022/05/13 07:11:03;;;;;;;10.52;5.00;;;;;;;16.22;51.23;100993.53;7396034;19;20035;-67
2022/05/13 07:13:31;;;;;;;7.80;5.10;;;;;;;16.36;50.14;100993.78;7394528;19;20011;-64
2022/05/13 07:16:00;;;;;;;11.18;6.32;;;;;;;16.52;49.36;100982.56;7395288;19;20018;-66
2022/05/13 07:18:28;;;;;;;15.15;6.75;;;;;;;16.64;48.53;100983.81;7396676;19;20015;-65
2022/05/13 07:20:56;;;;;;;9.63;6.28;;;;;;;16.73;47.80;100986.06;7396580;19;20023;-65
2022/05/13 07:23:25;;;;;;;10.50;5.95;;;;;;;16.81;47.85;100975.13;7394100;19;20018;-64
2022/05/13 07:25:55;;;;;;;12.43;5.95;;;;;;;16.89;47.03;100976.50;7394731;19;20042;-66
2022/05/13 07:28:26;;;;;;;12.95;7.47;;;;;;;16.99;46.88;100977.00;7395743;19;20620;-66
2022/05/13 07:30:54;;;;;;;11.98;7.25;;;;;;;17.07;46.32;100977.53;7395874;19;20029;-65
2022/05/13 07:33:23;;;;;;;12.02;8.27;;;;;;;17.18;45.48;100986.78;7395932;19;20367;-65
2022/05/13 07:35:51;;;;;;;10.95;8.00;;;;;;;17.29;45.76;100986.25;7394342;19;20416;-66
2022/05/13 07:38:20;;;;;;;18.63;8.98;;;;;;;17.40;45.63;100995.47;7395825;19;20372;-66
2022/05/13 07:43:31;;;;;;;12.35;9.77;;;;;;;17.61;44.20;100990.06;7395537;19;20018;-67
2022/05/13 07:45:59;;;;;;;12.73;8.30;;;;;;;17.69;44.56;100990.59;7393799;19;20031;-66
2022/05/13 07:48:28;;;;;;;12.85;6.65;;;;;;;17.80;44.38;100994.50;7395361;19;20027;-67
2022/05/13 07:50:56;;;;;;;10.07;6.63;;;;;;;17.89;43.97;100986.09;7394439;19;20035;-67
2022/05/13 07:53:24;;;;;;;12.82;8.05;;;;;;;17.98;42.53;100988.31;7394403;19;20370;-67
2022/05/13 07:55:53;;;;;;;11.75;6.85;;;;;;;18.08;43.18;100991.41;7394263;19;20018;-66
2022/05/13 07:58:21;;;;;;;12.77;7.78;;;;;;;18.19;43.20;100991.72;7395958;19;20018;-66
2022/05/13 08:00:54;;;;;;;13.02;6.47;;;;;;;18.31;42.41;100995.56;7396017;19;20032;-67
2022/05/13 08:03:23;;;;;;;11.02;7.32;;;;;;;18.45;42.77;100991.34;7395768;19;20026;-65
2022/05/13 08:05:57;;;;;;;9.90;6.53;;;;;;;18.56;41.94;101005.81;7393844;19;20041;-68
2022/05/13 08:08:30;;;;;;;14.05;6.20;;;;;;;18.67;41.88;100991.13;7394192;19;20010;-65
2022/05/13 08:11:02;;;;;;;11.63;5.53;;;;;;;18.68;40.74;101012.28;7394595;19;20022;-67
2022/05/13 08:13:33;;;;;;;7.30;5.75;;;;;;;18.67;40.74;100994.63;7395599;19;20031;-67
2022/05/13 08:16:06;;;;;;;7.30;5.57;;;;;;;18.60;39.34;101000.34;7395387;19;20017;-66
2022/05/13 08:18:35;;;;;;;11.80;5.28;;;;;;;18.60;40.72;100995.88;7394130;19;20025;-67
2022/05/13 08:21:04;;;;;;;8.38;4.55;;;;;;;18.60;40.33;100984.38;7394772;19;20499;-66
2022/05/13 08:23:32;;;;;;;12.75;4.68;;;;;;;18.62;39.88;100978.06;7392611;19;20037;-65
2022/05/13 08:26:01;;;;;;;9.20;5.00;;;;;;;18.63;39.88;100984.25;7392323;19;20022;-67
2022/05/13 08:28:29;;;;;;;8.23;4.88;;;;;;;18.68;39.87;100995.50;7393368;19;20018;-68
2022/05/13 08:30:57;;;;;;;7.85;5.35;;;;;;;18.73;40.48;100996.97;7393181;19;20034;-67
2022/05/13 08:33:28;;;;;;;13.90;6.15;;;;;;;18.76;40.02;101001.25;7392652;19;20042;-67
2022/05/13 08:35:59;;;;;;;10.18;4.68;;;;;;;18.78;40.15;101012.69;7392923;19;20019;-65
2022/05/13 08:38:33;;;;;;;6.00;3.78;;;;;;;18.82;40.57;100994.78;7393973;19;20369;-67
2022/05/13 08:41:15;;;;;;;;;;;;;;;18.84;40.48;100993.75;7394044;19;20512;-67
2022/05/13 08:43:46;;;;;;;10.27;5.93;;;;;;;18.86;41.47;100991.00;7393056;19;20341;-68
2022/05/13 08:46:23;;;;;;;7.72;5.55;;;;;;;18.84;41.37;100998.19;7397253;19;20031;-66
2022/05/13 08:48:57;;;;;;;7.15;4.72;;;;;;;18.78;41.81;100999.41;7402550;19;20018;-67
2022/05/13 08:51:39;;;;;;;10.90;5.20;;;;;;;18.72;42.23;100995.25;7398884;19;20049;-68
2022/05/13 08:54:15;;;;;;;9.25;5.07;;;;;;;18.69;42.20;100995.41;7399000;19;20133;-69
2022/05/13 08:56:46;;;;;;;10.45;6.05;;;;;;;18.68;41.87;101024.72;7402217;19;20022;-68
2022/05/13 08:59:19;;;;;;;10.60;4.78;;;;;;;18.64;41.59;101013.41;7398915;19;20010;-68
2022/05/13 09:01:53;;;;;;;6.53;4.50;;;;;;;18.62;41.85;101006.44;7401675;19;20018;-68
2022/05/13 09:04:37;;;;;;;10.05;4.60;;;;;;;18.52;40.79;101006.03;7398311;19;20502;-66
2022/05/13 09:07:08;;;;;;;11.57;5.13;;;;;;;18.50;40.92;101015.88;7402028;19;20027;-67
2022/05/13 09:09:37;;;;;;;27.45;6.30;;;;;;;18.48;41.55;101007.16;7398244;19;20010;-67
2022/05/13 09:12:13;;;;;;;9.65;4.90;;;;;;;18.48;41.75;101036.38;7398675;19;20025;-65
2022/05/13 09:14:47;;;;;;;14.55;5.45;;;;;;;18.51;41.78;101012.28;7398033;19;20512;-66
2022/05/13 09:17:31;;;;;;;10.10;5.45;;;;;;;18.45;41.69;100991.34;7397749;19;20389;-68
2022/05/13 09:20:07;;;;;;;8.07;5.07;;;;;;;18.48;41.63;101012.47;7397793;19;20015;-67
2022/05/13 09:22:42;;;;;;;9.02;5.07;;;;;;;18.45;41.03;100999.31;7400474;19;20032;-64
2022/05/13 09:25:26;;;;;;;7.20;5.68;;;;;;;18.40;41.15;100995.09;7398056;19;20028;-65
2022/05/13 09:28:00;;;;;;;7.45;4.68;;;;;;;18.40;41.39;100976.50;7401014;19;20026;-65
2022/05/13 09:30:40;;;;;;;8.30;5.00;;;;;;;18.47;41.34;100992.13;7398108;19;20014;-65
2022/05/13 09:33:23;;;;;;;7.88;4.88;;;;;;;18.52;40.64;100977.66;7397504;19;20025;-66
2022/05/13 09:35:56;;;;;;;9.23;5.53;;;;;;;18.52;40.26;100996.25;7397533;19;20022;-65
2022/05/13 09:38:26;;;;;;;10.23;4.55;;;;;;;18.54;41.02;101014.81;7397812;19;20027;-66
2022/05/13 09:41:03;;;;;;;12.02;5.65;;;;;;;18.48;40.02;100994.72;7400442;19;20011;-66
2022/05/13 09:43:40;;;;;;;6.60;4.90;;;;;;;18.35;39.84;101028.13;7399948;19;20015;-66
2022/05/13 09:46:11;;;;;;;8.50;5.22;;;;;;;18.33;40.50;101016.75;7400132;19;20018;-65
2022/05/13 09:48:42;;;;;;;6.70;4.82;;;;;;;18.27;40.01;100998.47;7399911;19;20015;-66
2022/05/13 09:51:32;;;;;;;7.45;4.57;;;;;;;18.30;39.86;100991.19;7397398;19;20031;-65
2022/05/13 09:54:15;;;;;;;7.63;4.63;;;;;;;18.31;40.50;100992.91;7398951;19;20482;-66
2022/05/13 09:56:47;;;;;;;6.75;4.45;;;;;;;18.33;40.03;100992.84;7397497;19;20031;-66
2022/05/13 09:59:23;;;;;;;10.50;4.30;;;;;;;18.37;40.10;100995.28;7395843;19;20019;-66
2022/05/13 10:01:51;;;;;;;9.85;4.82;;;;;;;18.38;40.17;100980.19;7397324;19;20023;-65
2022/05/13 10:04:24;;;;;;;9.32;3.92;;;;;;;18.37;40.14;101000.59;7396573;19;20088;-65
2022/05/13 10:07:05;;;;;;;6.00;3.65;;;;;;;18.36;40.23;101000.63;7399441;19;20044;-66
2022/05/13 10:15:10;;;;;;;5.43;3.08;;;;;;;18.20;40.04;101003.22;7397220;19;20131;-66
2022/05/13 10:17:46;;;;;;;5.85;3.03;;;;;;;18.23;39.69;101003.06;7399416;19;20022;-64
2022/05/13 10:20:25;;;;;;;5.22;2.70;;;;;;;18.18;39.69;100995.31;7398961;19;20042;-65
2022/05/13 10:23:00;;;;;;;4.70;2.53;;;;;;;18.23;40.25;101003.06;7399608;19;20015;-68
2022/05/13 10:25:33;;;;;;;6.38;2.70;;;;;;;18.23;39.88;101006.56;7396074;19;20023;-65
2022/05/13 10:28:06;;;;;;;10.73;3.05;;;;;;;18.22;40.16;101015.50;7396605;19;20014;-65
2022/05/13 10:30:37;;;;;;;;;;;;;;;18.20;40.06;100995.25;7397077;19;20078;-65
2022/05/13 10:33:11;;;;;;;5.03;2.80;;;;;;;18.25;40.46;100993.22;7398613;19;19927;-66
2022/05/13 10:35:48;;;;;;;6.60;2.97;;;;;;;18.32;40.27;101001.75;7396788;19;20054;-66
2022/05/13 10:38:26;;;;;;;7.20;2.30;;;;;;;18.28;39.37;101019.63;7398468;19;20371;-68
2022/05/13 10:40:57;;;;;;;8.65;2.25;;;;;;;18.28;39.94;101002.84;7396894;19;20019;-65
2022/05/13 10:43:38;;;;;;;4.88;2.33;;;;;;;18.32;38.90;101002.59;7398792;19;20018;-64
2022/05/13 10:46:20;;;;;;;4.45;2.17;;;;;;;18.36;38.70;100995.31;7398963;19;20014;-66
2022/05/13 10:48:53;;;;;;;10.32;2.67;;;;;;;18.38;38.53;101012.06;7396190;19;20039;-65
2022/05/13 10:51:27;;;;;;;5.30;2.10;;;;;;;18.47;38.66;100989.47;7395572;19;20481;-66
2022/05/13 10:54:21;;;;;;;2.10;1.42;;;;;;;18.55;37.76;101003.22;7397176;19;20380;-65
2022/05/13 10:56:55;;;;;;;6.82;1.85;;;;;;;18.57;37.25;101004.00;7397831;19;20018;-67
2022/05/13 10:59:39;;;;;;;4.95;1.70;;;;;;;18.58;37.77;100994.22;7396521;19;20025;-66
2022/05/13 11:02:32;;;;;;;5.30;1.50;;;;;;;18.58;37.77;101011.03;7395881;19;20022;-69
2022/05/13 11:05:08;;;;;;;4.95;1.45;;;;;;;18.62;37.94;101012.59;7395412;19;20018;-65
2022/05/13 11:08:21;;;;;;;5.30;1.30;;;;;;;18.64;37.66;101005.44;7396295;19;20007;-65
2022/05/13 11:11:02;;;;;;;3.03;1.05;;;;;;;18.66;36.63;101011.50;7392705;19;20022;-67
2022/05/13 11:13:48;;;;;;;2.67;1.30;;;;;;;18.62;36.77;101012.59;7397371;19;20118;-66
2022/05/13 11:16:29;;;;;;;6.30;1.33;;;;;;;18.57;36.87;101009.31;7395811;19;20015;-65
2022/05/13 11:19:04;;;;;;;3.75;1.58;;;;;;;18.53;36.92;101013.94;7396338;19;20022;-67
2022/05/13 11:21:41;;;;;;;9.48;2.33;;;;;;;18.52;37.50;101006.03;7394854;19;20433;-65
2022/05/13 11:27:21;;;;;;;8.32;1.75;;;;;;;18.58;37.50;101029.66;7390798;19;20011;-67
2022/05/13 11:29:55;;;;;;;4.07;1.50;;;;;;;18.50;37.16;101015.88;7393760;19;20028;-65
2022/05/13 11:32:31;;;;;;;5.10;2.17;;;;;;;18.46;37.68;101007.19;7393398;19;20375;-67
2022/05/13 11:35:12;;;;;;;2.72;1.35;;;;;;;18.48;37.47;101015.97;7393397;19;20018;-65
2022/05/13 11:37:43;;;;;;;8.02;2.30;;;;;;;18.59;37.59;100999.50;7395210;19;20027;-65
2022/05/13 11:40:26;;;;;;;2.35;1.83;;;;;;;18.63;37.63;101001.03;7392998;19;20018;-67
2022/05/13 11:43:24;;;;;;;3.75;1.80;;;;;;;18.63;37.46;101026.75;7395647;19;20018;-66
2022/05/13 11:46:09;;;;;;;6.88;2.20;;;;;;;18.54;38.25;101046.69;7394558;19;20023;-66
2022/05/13 11:48:39;;;;;;;5.30;2.22;;;;;;;18.50;37.88;101026.50;7394443;19;20027;-66
2022/05/13 11:51:12;;;;;;;6.90;2.30;;;;;;;18.40;37.70;101016.34;7395867;19;20015;-67
2022/05/13 11:53:49;;;;;;;8.48;2.10;;;;;;;18.50;37.41;101029.16;7396800;19;20047;-68
2022/05/13 11:56:38;;;;;;;5.80;2.38;;;;;;;18.63;37.40;100995.72;7396598;19;20034;-66
2022/05/13 11:59:12;;;;;;;7.53;1.88;;;;;;;18.82;37.30;101005.41;7396349;19;20018;-65
2022/05/13 12:02:08;;;;;;;4.30;1.95;;;;;;;18.96;36.85;100997.59;7396613;19;20024;-65
2022/05/13 12:05:00;;;;;;;7.95;1.90;;;;;;;19.13;35.97;100995.81;7394874;19;20116;-65
2022/05/13 12:07:32;;;;;;;6.50;1.90;;;;;;;19.31;35.84;100984.19;7395305;19;20032;-64
2022/05/13 12:10:02;;;;;;;5.63;2.47;;;;;;;19.47;34.72;101004.63;7393567;19;20027;-65
2022/05/13 12:12:53;;;;;;;6.53;1.77;;;;;;;19.53;33.62;101010.47;7393680;19;20018;-65